sensor_id;sensor_type;location;lat;lon;timestamp;P1;durP1;ratioP1;P2;durP2;ratioP2
14858;SDS011;7521;51.700;6.874;2024-01-15T00:00:49;47.83;;;24.33;;
14858;SDS011;7521;51.700;6.874;2024-01-15T00:03:54;49.72;;;23.75;;
14858;SDS011;7521;51.700;6.874;2024-01-15T00:07:00;51.37;;;24.37;;
14858;SDS011;7521;51.700;6.874;2024-01-15T00:10:05;50.05;;;24.23;;
14858;SDS011;7521;51.700;6.874;2024-01-15T00:13:10;48.73;;;23.63;;
14858;SDS011;7521;51.700;6.874;2024-01-15T00:16:16;52.25;;;25.10;;
14858;SDS011;7521;51.700;6.874;2024-01-15T00:19:21;43.50;;;23.08;;
14858;SDS011;7521;51.700;6.874;2024-01-15T00:22:26;52.70;;;25.00;;
14858;SDS011;7521;51.700;6.874;2024-01-15T00:25:35;49.00;;;23.80;;
14858;SDS011;7521;51.700;6.874;2024-01-15T00:28:41;51.10;;;24.60;;
14858;SDS011;7521;51.700;6.874;2024-01-15T00:31:49;51.15;;;25.30;;
14858;SDS011;7521;51.700;6.874;2024-01-15T00:34:54;51.77;;;25.07;;
14858;SDS011;7521;51.700;6.874;2024-01-15T00:37:59;48.97;;;24.50;;
14858;SDS011;7521;51.700;6.874;2024-01-15T00:41:04;55.63;;;26.58;;
14858;SDS011;7521;51.700;6.874;2024-01-15T00:44:09;58.35;;;25.95;;
14858;SDS011;7521;51.700;6.874;2024-01-15T00:47:14;52.65;;;25.08;;
14858;SDS011;7521;51.700;6.874;2024-01-15T00:50:19;50.20;;;24.20;;
14858;SDS011;7521;51.700;6.874;2024-01-15T00:53:25;52.75;;;25.25;;
14858;SDS011;7521;51.700;6.874;2024-01-15T00:56:30;48.43;;;22.63;;
14858;SDS011;7521;51.700;6.874;2024-01-15T00:59:35;51.20;;;24.30;;
14858;SDS011;7521;51.700;6.874;2024-01-15T01:02:41;52.57;;;23.40;;
14858;SDS011;7521;51.700;6.874;2024-01-15T01:05:48;53.20;;;22.73;;
14858;SDS011;7521;51.700;6.874;2024-01-15T01:08:53;48.03;;;21.47;;
14858;SDS011;7521;51.700;6.874;2024-01-15T01:11:58;46.67;;;23.48;;
14858;SDS011;7521;51.700;6.874;2024-01-15T01:15:03;39.43;;;20.00;;
14858;SDS011;7521;51.700;6.874;2024-01-15T01:18:09;37.53;;;19.97;;
14858;SDS011;7521;51.700;6.874;2024-01-15T01:21:16;47.90;;;20.07;;
14858;SDS011;7521;51.700;6.874;2024-01-15T01:24:21;37.07;;;18.47;;
14858;SDS011;7521;51.700;6.874;2024-01-15T01:27:27;43.23;;;20.13;;
14858;SDS011;7521;51.700;6.874;2024-01-15T01:30:32;38.20;;;17.60;;
14858;SDS011;7521;51.700;6.874;2024-01-15T01:33:38;40.42;;;18.98;;
14858;SDS011;7521;51.700;6.874;2024-01-15T01:36:43;40.17;;;17.67;;
14858;SDS011;7521;51.700;6.874;2024-01-15T01:39:48;32.70;;;16.67;;
14858;SDS011;7521;51.700;6.874;2024-01-15T01:42:54;28.10;;;16.15;;
14858;SDS011;7521;51.700;6.874;2024-01-15T01:46:00;30.73;;;16.08;;
14858;SDS011;7521;51.700;6.874;2024-01-15T01:49:05;31.03;;;15.13;;
14858;SDS011;7521;51.700;6.874;2024-01-15T01:52:11;25.80;;;14.90;;
14858;SDS011;7521;51.700;6.874;2024-01-15T01:55:16;34.60;;;16.23;;
14858;SDS011;7521;51.700;6.874;2024-01-15T01:58:22;31.30;;;15.63;;
14858;SDS011;7521;51.700;6.874;2024-01-15T02:01:28;27.77;;;15.27;;
14858;SDS011;7521;51.700;6.874;2024-01-15T02:04:34;29.03;;;14.83;;
14858;SDS011;7521;51.700;6.874;2024-01-15T02:07:41;30.77;;;14.70;;
14858;SDS011;7521;51.700;6.874;2024-01-15T02:10:46;28.95;;;14.40;;
14858;SDS011;7521;51.700;6.874;2024-01-15T02:13:52;30.33;;;14.43;;
14858;SDS011;7521;51.700;6.874;2024-01-15T02:16:57;25.77;;;14.33;;
14858;SDS011;7521;51.700;6.874;2024-01-15T02:20:02;25.40;;;14.10;;
14858;SDS011;7521;51.700;6.874;2024-01-15T02:23:08;35.20;;;15.97;;
14858;SDS011;7521;51.700;6.874;2024-01-15T02:26:15;28.23;;;14.33;;
14858;SDS011;7521;51.700;6.874;2024-01-15T02:29:20;26.20;;;13.83;;
14858;SDS011;7521;51.700;6.874;2024-01-15T02:32:25;28.95;;;15.05;;
14858;SDS011;7521;51.700;6.874;2024-01-15T02:35:30;30.60;;;14.68;;
14858;SDS011;7521;51.700;6.874;2024-01-15T02:38:36;26.07;;;14.03;;
14858;SDS011;7521;51.700;6.874;2024-01-15T02:41:41;22.40;;;13.82;;
14858;SDS011;7521;51.700;6.874;2024-01-15T02:44:46;30.37;;;14.43;;
14858;SDS011;7521;51.700;6.874;2024-01-15T02:47:51;26.20;;;14.32;;
14858;SDS011;7521;51.700;6.874;2024-01-15T02:50:56;29.23;;;13.85;;
14858;SDS011;7521;51.700;6.874;2024-01-15T02:54:01;25.92;;;13.93;;
14858;SDS011;7521;51.700;6.874;2024-01-15T02:57:06;27.88;;;14.23;;
14858;SDS011;7521;51.700;6.874;2024-01-15T03:00:12;33.55;;;13.93;;
14858;SDS011;7521;51.700;6.874;2024-01-15T03:03:17;27.00;;;14.33;;
14858;SDS011;7521;51.700;6.874;2024-01-15T03:06:22;32.50;;;15.45;;
14858;SDS011;7521;51.700;6.874;2024-01-15T03:09:27;29.15;;;14.75;;
14858;SDS011;7521;51.700;6.874;2024-01-15T03:12:32;28.38;;;15.18;;
14858;SDS011;7521;51.700;6.874;2024-01-15T03:15:38;27.05;;;14.43;;
14858;SDS011;7521;51.700;6.874;2024-01-15T03:18:43;30.80;;;15.60;;
14858;SDS011;7521;51.700;6.874;2024-01-15T03:21:48;30.02;;;15.07;;
14858;SDS011;7521;51.700;6.874;2024-01-15T03:24:54;33.75;;;15.57;;
14858;SDS011;7521;51.700;6.874;2024-01-15T03:27:59;31.13;;;14.77;;
14858;SDS011;7521;51.700;6.874;2024-01-15T03:31:04;28.40;;;15.63;;
14858;SDS011;7521;51.700;6.874;2024-01-15T03:34:09;26.10;;;14.63;;
14858;SDS011;7521;51.700;6.874;2024-01-15T03:37:15;28.65;;;14.50;;
14858;SDS011;7521;51.700;6.874;2024-01-15T03:40:20;32.00;;;13.90;;
14858;SDS011;7521;51.700;6.874;2024-01-15T03:43:26;33.30;;;14.47;;
14858;SDS011;7521;51.700;6.874;2024-01-15T03:46:31;24.77;;;13.00;;
14858;SDS011;7521;51.700;6.874;2024-01-15T03:49:36;26.88;;;13.82;;
14858;SDS011;7521;51.700;6.874;2024-01-15T03:52:41;32.58;;;13.23;;
14858;SDS011;7521;51.700;6.874;2024-01-15T03:55:46;30.33;;;13.40;;
14858;SDS011;7521;51.700;6.874;2024-01-15T03:58:52;31.00;;;12.70;;
14858;SDS011;7521;51.700;6.874;2024-01-15T04:01:57;28.55;;;11.75;;
14858;SDS011;7521;51.700;6.874;2024-01-15T04:05:02;21.30;;;10.40;;
14858;SDS011;7521;51.700;6.874;2024-01-15T04:08:07;22.97;;;10.20;;
14858;SDS011;7521;51.700;6.874;2024-01-15T04:11:12;23.10;;;10.07;;
14858;SDS011;7521;51.700;6.874;2024-01-15T04:14:18;21.65;;;9.40;;
14858;SDS011;7521;51.700;6.874;2024-01-15T04:17:23;22.75;;;9.57;;
14858;SDS011;7521;51.700;6.874;2024-01-15T04:20:28;23.13;;;8.43;;
14858;SDS011;7521;51.700;6.874;2024-01-15T04:23:33;14.00;;;9.07;;
14858;SDS011;7521;51.700;6.874;2024-01-15T04:26:38;19.45;;;9.20;;
14858;SDS011;7521;51.700;6.874;2024-01-15T04:29:43;13.80;;;7.72;;
14858;SDS011;7521;51.700;6.874;2024-01-15T04:32:49;19.63;;;7.90;;
14858;SDS011;7521;51.700;6.874;2024-01-15T04:35:54;18.15;;;7.90;;
14858;SDS011;7521;51.700;6.874;2024-01-15T04:38:59;13.10;;;6.85;;
14858;SDS011;7521;51.700;6.874;2024-01-15T04:42:05;14.25;;;6.22;;
14858;SDS011;7521;51.700;6.874;2024-01-15T04:45:13;19.73;;;7.25;;
14858;SDS011;7521;51.700;6.874;2024-01-15T04:48:18;14.50;;;7.20;;
14858;SDS011;7521;51.700;6.874;2024-01-15T04:51:23;13.57;;;6.38;;
14858;SDS011;7521;51.700;6.874;2024-01-15T04:54:28;17.85;;;6.63;;
14858;SDS011;7521;51.700;6.874;2024-01-15T04:57:33;15.83;;;6.97;;
14858;SDS011;7521;51.700;6.874;2024-01-15T05:00:39;12.57;;;6.63;;
14858;SDS011;7521;51.700;6.874;2024-01-15T05:03:44;14.83;;;7.17;;
14858;SDS011;7521;51.700;6.874;2024-01-15T05:06:49;14.85;;;7.03;;
14858;SDS011;7521;51.700;6.874;2024-01-15T05:09:54;16.15;;;7.82;;
14858;SDS011;7521;51.700;6.874;2024-01-15T05:12:59;15.70;;;8.30;;
14858;SDS011;7521;51.700;6.874;2024-01-15T05:16:05;22.05;;;8.57;;
14858;SDS011;7521;51.700;6.874;2024-01-15T05:19:10;19.37;;;9.07;;
14858;SDS011;7521;51.700;6.874;2024-01-15T05:22:15;21.48;;;8.82;;
14858;SDS011;7521;51.700;6.874;2024-01-15T05:25:20;16.63;;;8.48;;
14858;SDS011;7521;51.700;6.874;2024-01-15T05:28:25;18.10;;;9.68;;
14858;SDS011;7521;51.700;6.874;2024-01-15T05:31:30;21.13;;;9.70;;
14858;SDS011;7521;51.700;6.874;2024-01-15T05:34:36;22.43;;;7.77;;
14858;SDS011;7521;51.700;6.874;2024-01-15T05:37:43;17.25;;;8.50;;
14858;SDS011;7521;51.700;6.874;2024-01-15T05:40:48;18.40;;;7.97;;
14858;SDS011;7521;51.700;6.874;2024-01-15T05:43:53;17.85;;;7.10;;
14858;SDS011;7521;51.700;6.874;2024-01-15T05:46:58;18.60;;;7.90;;
14858;SDS011;7521;51.700;6.874;2024-01-15T05:50:04;18.47;;;8.00;;
14858;SDS011;7521;51.700;6.874;2024-01-15T05:53:09;13.37;;;7.43;;
14858;SDS011;7521;51.700;6.874;2024-01-15T05:56:14;18.63;;;7.38;;
14858;SDS011;7521;51.700;6.874;2024-01-15T05:59:20;18.05;;;7.07;;
14858;SDS011;7521;51.700;6.874;2024-01-15T06:02:25;19.77;;;7.10;;
14858;SDS011;7521;51.700;6.874;2024-01-15T06:05:30;18.27;;;7.10;;
14858;SDS011;7521;51.700;6.874;2024-01-15T06:08:35;15.48;;;7.15;;
14858;SDS011;7521;51.700;6.874;2024-01-15T06:11:40;20.42;;;7.70;;
14858;SDS011;7521;51.700;6.874;2024-01-15T06:14:45;17.03;;;7.73;;
14858;SDS011;7521;51.700;6.874;2024-01-15T06:17:50;23.75;;;8.07;;
14858;SDS011;7521;51.700;6.874;2024-01-15T06:20:56;19.40;;;7.32;;
14858;SDS011;7521;51.700;6.874;2024-01-15T06:24:01;16.63;;;7.60;;
14858;SDS011;7521;51.700;6.874;2024-01-15T06:27:06;20.00;;;8.30;;
14858;SDS011;7521;51.700;6.874;2024-01-15T06:30:11;15.00;;;6.97;;
14858;SDS011;7521;51.700;6.874;2024-01-15T06:33:16;13.37;;;6.73;;
14858;SDS011;7521;51.700;6.874;2024-01-15T06:36:22;16.30;;;7.82;;
14858;SDS011;7521;51.700;6.874;2024-01-15T06:39:27;17.83;;;7.03;;
14858;SDS011;7521;51.700;6.874;2024-01-15T06:42:32;13.55;;;6.57;;
14858;SDS011;7521;51.700;6.874;2024-01-15T06:45:37;12.73;;;5.95;;
14858;SDS011;7521;51.700;6.874;2024-01-15T06:48:42;11.93;;;5.97;;
14858;SDS011;7521;51.700;6.874;2024-01-15T06:51:47;12.30;;;6.20;;
14858;SDS011;7521;51.700;6.874;2024-01-15T06:54:52;10.40;;;5.95;;
14858;SDS011;7521;51.700;6.874;2024-01-15T06:57:58;16.00;;;5.72;;
14858;SDS011;7521;51.700;6.874;2024-01-15T07:01:03;17.27;;;5.63;;
14858;SDS011;7521;51.700;6.874;2024-01-15T07:04:09;12.40;;;4.83;;
14858;SDS011;7521;51.700;6.874;2024-01-15T07:07:15;11.03;;;5.00;;
14858;SDS011;7521;51.700;6.874;2024-01-15T07:10:20;8.75;;;4.45;;
14858;SDS011;7521;51.700;6.874;2024-01-15T07:13:25;9.25;;;4.45;;
14858;SDS011;7521;51.700;6.874;2024-01-15T07:16:30;10.93;;;3.90;;
14858;SDS011;7521;51.700;6.874;2024-01-15T07:19:35;8.18;;;3.72;;
14858;SDS011;7521;51.700;6.874;2024-01-15T07:22:41;6.97;;;3.67;;
14858;SDS011;7521;51.700;6.874;2024-01-15T07:25:46;12.18;;;5.55;;
14858;SDS011;7521;51.700;6.874;2024-01-15T07:28:51;7.78;;;4.50;;
14858;SDS011;7521;51.700;6.874;2024-01-15T07:31:56;11.75;;;5.13;;
14858;SDS011;7521;51.700;6.874;2024-01-15T07:35:02;11.45;;;5.15;;
14858;SDS011;7521;51.700;6.874;2024-01-15T07:38:07;8.63;;;6.17;;
14858;SDS011;7521;51.700;6.874;2024-01-15T07:41:13;17.73;;;8.73;;
14858;SDS011;7521;51.700;6.874;2024-01-15T07:44:18;9.20;;;5.67;;
14858;SDS011;7521;51.700;6.874;2024-01-15T07:47:23;10.80;;;4.45;;
14858;SDS011;7521;51.700;6.874;2024-01-15T07:50:28;8.43;;;4.20;;
14858;SDS011;7521;51.700;6.874;2024-01-15T07:53:34;8.68;;;4.47;;
14858;SDS011;7521;51.700;6.874;2024-01-15T07:56:58;6.67;;;4.97;;
14858;SDS011;7521;51.700;6.874;2024-01-15T08:00:04;6.10;;;4.73;;
14858;SDS011;7521;51.700;6.874;2024-01-15T08:03:10;8.07;;;5.03;;
14858;SDS011;7521;51.700;6.874;2024-01-15T08:06:15;8.03;;;4.23;;
14858;SDS011;7521;51.700;6.874;2024-01-15T08:09:21;8.60;;;4.80;;
14858;SDS011;7521;51.700;6.874;2024-01-15T08:12:26;9.00;;;5.95;;
14858;SDS011;7521;51.700;6.874;2024-01-15T08:15:31;8.23;;;4.57;;
14858;SDS011;7521;51.700;6.874;2024-01-15T08:18:36;7.15;;;4.65;;
14858;SDS011;7521;51.700;6.874;2024-01-15T08:21:42;7.47;;;4.00;;
14858;SDS011;7521;51.700;6.874;2024-01-15T08:24:47;7.53;;;4.70;;
14858;SDS011;7521;51.700;6.874;2024-01-15T08:27:52;9.68;;;5.30;;
14858;SDS011;7521;51.700;6.874;2024-01-15T08:30:57;7.25;;;4.80;;
14858;SDS011;7521;51.700;6.874;2024-01-15T08:34:02;7.38;;;4.93;;
14858;SDS011;7521;51.700;6.874;2024-01-15T08:37:07;7.55;;;4.60;;
14858;SDS011;7521;51.700;6.874;2024-01-15T08:40:13;8.32;;;4.60;;
14858;SDS011;7521;51.700;6.874;2024-01-15T08:43:18;8.80;;;5.20;;
14858;SDS011;7521;51.700;6.874;2024-01-15T08:46:23;7.60;;;4.53;;
14858;SDS011;7521;51.700;6.874;2024-01-15T08:49:29;7.23;;;5.43;;
14858;SDS011;7521;51.700;6.874;2024-01-15T08:52:34;7.20;;;4.72;;
14858;SDS011;7521;51.700;6.874;2024-01-15T08:55:39;5.50;;;4.18;;
14858;SDS011;7521;51.700;6.874;2024-01-15T08:58:45;6.43;;;4.27;;
14858;SDS011;7521;51.700;6.874;2024-01-15T09:01:54;7.20;;;4.50;;
14858;SDS011;7521;51.700;6.874;2024-01-15T09:05:02;5.47;;;3.30;;
14858;SDS011;7521;51.700;6.874;2024-01-15T09:08:09;6.00;;;4.47;;
14858;SDS011;7521;51.700;6.874;2024-01-15T09:11:14;5.03;;;3.95;;
14858;SDS011;7521;51.700;6.874;2024-01-15T09:14:19;6.30;;;4.00;;
14858;SDS011;7521;51.700;6.874;2024-01-15T09:17:27;7.43;;;5.00;;
14858;SDS011;7521;51.700;6.874;2024-01-15T09:20:33;5.10;;;3.50;;
14858;SDS011;7521;51.700;6.874;2024-01-15T09:23:38;7.37;;;3.37;;
14858;SDS011;7521;51.700;6.874;2024-01-15T09:26:43;7.57;;;4.70;;
14858;SDS011;7521;51.700;6.874;2024-01-15T09:29:48;6.10;;;4.18;;
14858;SDS011;7521;51.700;6.874;2024-01-15T09:32:54;5.30;;;3.73;;
14858;SDS011;7521;51.700;6.874;2024-01-15T09:36:02;5.03;;;4.32;;
14858;SDS011;7521;51.700;6.874;2024-01-15T09:39:09;5.20;;;4.37;;
14858;SDS011;7521;51.700;6.874;2024-01-15T09:42:16;4.73;;;3.37;;
14858;SDS011;7521;51.700;6.874;2024-01-15T09:45:21;7.23;;;4.80;;
14858;SDS011;7521;51.700;6.874;2024-01-15T09:48:26;4.47;;;3.53;;
14858;SDS011;7521;51.700;6.874;2024-01-15T09:51:32;4.30;;;3.60;;
14858;SDS011;7521;51.700;6.874;2024-01-15T09:54:37;4.83;;;3.40;;
14858;SDS011;7521;51.700;6.874;2024-01-15T09:57:43;7.80;;;4.73;;
14858;SDS011;7521;51.700;6.874;2024-01-15T10:00:48;5.37;;;3.67;;
14858;SDS011;7521;51.700;6.874;2024-01-15T10:03:55;5.03;;;3.50;;
14858;SDS011;7521;51.700;6.874;2024-01-15T10:07:00;7.77;;;4.80;;
14858;SDS011;7521;51.700;6.874;2024-01-15T10:10:05;7.73;;;4.67;;
14858;SDS011;7521;51.700;6.874;2024-01-15T10:13:12;7.33;;;4.83;;
14858;SDS011;7521;51.700;6.874;2024-01-15T10:16:17;8.77;;;4.10;;
14858;SDS011;7521;51.700;6.874;2024-01-15T10:19:23;7.05;;;4.30;;
14858;SDS011;7521;51.700;6.874;2024-01-15T10:22:28;8.80;;;4.63;;
14858;SDS011;7521;51.700;6.874;2024-01-15T10:25:33;10.82;;;5.50;;
14858;SDS011;7521;51.700;6.874;2024-01-15T10:28:40;7.03;;;4.77;;
14858;SDS011;7521;51.700;6.874;2024-01-15T10:31:46;7.50;;;5.47;;
14858;SDS011;7521;51.700;6.874;2024-01-15T10:34:52;8.70;;;5.60;;
14858;SDS011;7521;51.700;6.874;2024-01-15T10:37:58;11.60;;;5.53;;
14858;SDS011;7521;51.700;6.874;2024-01-15T10:41:03;7.97;;;5.33;;
14858;SDS011;7521;51.700;6.874;2024-01-15T10:44:09;8.80;;;5.53;;
14858;SDS011;7521;51.700;6.874;2024-01-15T10:47:14;10.53;;;7.00;;
14858;SDS011;7521;51.700;6.874;2024-01-15T10:50:20;10.97;;;6.23;;
14858;SDS011;7521;51.700;6.874;2024-01-15T10:53:25;8.67;;;4.63;;
14858;SDS011;7521;51.700;6.874;2024-01-15T10:56:31;13.10;;;4.80;;
14858;SDS011;7521;51.700;6.874;2024-01-15T10:59:38;7.70;;;4.00;;
14858;SDS011;7521;51.700;6.874;2024-01-15T11:02:43;5.60;;;3.90;;
14858;SDS011;7521;51.700;6.874;2024-01-15T11:05:49;7.57;;;3.33;;
14858;SDS011;7521;51.700;6.874;2024-01-15T11:08:55;7.43;;;3.47;;
14858;SDS011;7521;51.700;6.874;2024-01-15T11:12:07;7.47;;;3.93;;
14858;SDS011;7521;51.700;6.874;2024-01-15T11:15:16;5.30;;;2.87;;
14858;SDS011;7521;51.700;6.874;2024-01-15T11:18:25;6.63;;;3.40;;
14858;SDS011;7521;51.700;6.874;2024-01-15T11:21:31;7.70;;;3.53;;
14858;SDS011;7521;51.700;6.874;2024-01-15T11:24:37;7.03;;;2.30;;
14858;SDS011;7521;51.700;6.874;2024-01-15T11:27:50;8.73;;;2.50;;
14858;SDS011;7521;51.700;6.874;2024-01-15T11:31:00;3.40;;;1.90;;
14858;SDS011;7521;51.700;6.874;2024-01-15T11:34:05;3.92;;;2.03;;
14858;SDS011;7521;51.700;6.874;2024-01-15T11:37:10;4.07;;;1.80;;
14858;SDS011;7521;51.700;6.874;2024-01-15T11:40:18;4.43;;;1.80;;
14858;SDS011;7521;51.700;6.874;2024-01-15T11:43:23;7.50;;;2.23;;
14858;SDS011;7521;51.700;6.874;2024-01-15T11:46:29;8.13;;;4.17;;
14858;SDS011;7521;51.700;6.874;2024-01-15T11:53:00;9.80;;;4.20;;
14858;SDS011;7521;51.700;6.874;2024-01-15T11:56:08;11.43;;;6.63;;
14858;SDS011;7521;51.700;6.874;2024-01-15T11:59:16;15.60;;;9.77;;
14858;SDS011;7521;51.700;6.874;2024-01-15T12:02:21;14.35;;;8.35;;
14858;SDS011;7521;51.700;6.874;2024-01-15T12:05:27;12.13;;;6.27;;
14858;SDS011;7521;51.700;6.874;2024-01-15T12:08:32;9.87;;;5.67;;
14858;SDS011;7521;51.700;6.874;2024-01-15T12:11:37;7.73;;;5.00;;
14858;SDS011;7521;51.700;6.874;2024-01-15T12:14:44;11.00;;;6.07;;
14858;SDS011;7521;51.700;6.874;2024-01-15T12:17:50;8.65;;;4.40;;
14858;SDS011;7521;51.700;6.874;2024-01-15T12:20:55;14.13;;;4.35;;
14858;SDS011;7521;51.700;6.874;2024-01-15T12:24:00;8.20;;;4.17;;
14858;SDS011;7521;51.700;6.874;2024-01-15T12:27:05;9.48;;;3.60;;
14858;SDS011;7521;51.700;6.874;2024-01-15T12:30:11;9.00;;;3.77;;
14858;SDS011;7521;51.700;6.874;2024-01-15T12:33:17;6.27;;;4.03;;
14858;SDS011;7521;51.700;6.874;2024-01-15T12:36:22;9.37;;;4.00;;
14858;SDS011;7521;51.700;6.874;2024-01-15T12:39:27;11.73;;;3.63;;
14858;SDS011;7521;51.700;6.874;2024-01-15T12:42:33;6.20;;;2.73;;
14858;SDS011;7521;51.700;6.874;2024-01-15T12:45:38;9.00;;;3.30;;
14858;SDS011;7521;51.700;6.874;2024-01-15T12:48:43;7.75;;;2.65;;
14858;SDS011;7521;51.700;6.874;2024-01-15T12:51:56;9.20;;;2.87;;
14858;SDS011;7521;51.700;6.874;2024-01-15T12:55:01;6.07;;;2.57;;
14858;SDS011;7521;51.700;6.874;2024-01-15T12:58:07;5.27;;;2.20;;
14858;SDS011;7521;51.700;6.874;2024-01-15T13:01:12;6.53;;;2.43;;
14858;SDS011;7521;51.700;6.874;2024-01-15T13:04:24;7.77;;;2.80;;
14858;SDS011;7521;51.700;6.874;2024-01-15T13:07:29;8.47;;;2.93;;
14858;SDS011;7521;51.700;6.874;2024-01-15T13:10:34;6.67;;;2.57;;
14858;SDS011;7521;51.700;6.874;2024-01-15T13:13:39;9.18;;;2.70;;
14858;SDS011;7521;51.700;6.874;2024-01-15T13:16:44;10.63;;;2.50;;
14858;SDS011;7521;51.700;6.874;2024-01-15T13:19:49;10.38;;;3.30;;
14858;SDS011;7521;51.700;6.874;2024-01-15T13:22:55;8.85;;;2.95;;
14858;SDS011;7521;51.700;6.874;2024-01-15T13:26:00;15.63;;;5.88;;
14858;SDS011;7521;51.700;6.874;2024-01-15T13:29:05;7.47;;;3.22;;
14858;SDS011;7521;51.700;6.874;2024-01-15T13:32:10;7.50;;;2.83;;
14858;SDS011;7521;51.700;6.874;2024-01-15T13:35:17;14.60;;;4.33;;
14858;SDS011;7521;51.700;6.874;2024-01-15T13:38:22;25.92;;;10.73;;
14858;SDS011;7521;51.700;6.874;2024-01-15T13:41:29;11.33;;;4.70;;
14858;SDS011;7521;51.700;6.874;2024-01-15T13:44:34;6.30;;;3.13;;
14858;SDS011;7521;51.700;6.874;2024-01-15T13:47:40;7.20;;;2.05;;
14858;SDS011;7521;51.700;6.874;2024-01-15T13:50:45;14.83;;;5.00;;
14858;SDS011;7521;51.700;6.874;2024-01-15T13:53:51;14.33;;;7.23;;
14858;SDS011;7521;51.700;6.874;2024-01-15T13:56:56;7.57;;;2.47;;
14858;SDS011;7521;51.700;6.874;2024-01-15T14:00:01;11.53;;;4.67;;
14858;SDS011;7521;51.700;6.874;2024-01-15T14:03:07;7.20;;;3.87;;
14858;SDS011;7521;51.700;6.874;2024-01-15T14:06:12;3.83;;;1.70;;
14858;SDS011;7521;51.700;6.874;2024-01-15T14:09:17;8.75;;;3.38;;
14858;SDS011;7521;51.700;6.874;2024-01-15T14:12:22;9.95;;;2.63;;
14858;SDS011;7521;51.700;6.874;2024-01-15T14:15:27;3.90;;;1.80;;
14858;SDS011;7521;51.700;6.874;2024-01-15T14:18:33;2.03;;;1.00;;
14858;SDS011;7521;51.700;6.874;2024-01-15T14:21:38;4.65;;;1.67;;
14858;SDS011;7521;51.700;6.874;2024-01-15T14:24:43;4.50;;;1.87;;
14858;SDS011;7521;51.700;6.874;2024-01-15T14:27:49;2.40;;;1.48;;
14858;SDS011;7521;51.700;6.874;2024-01-15T14:30:55;7.37;;;2.10;;
14858;SDS011;7521;51.700;6.874;2024-01-15T14:34:03;4.87;;;2.00;;
14858;SDS011;7521;51.700;6.874;2024-01-15T14:37:08;6.93;;;2.55;;
14858;SDS011;7521;51.700;6.874;2024-01-15T14:40:13;5.90;;;2.80;;
14858;SDS011;7521;51.700;6.874;2024-01-15T14:43:20;5.13;;;2.60;;
14858;SDS011;7521;51.700;6.874;2024-01-15T14:46:26;7.47;;;3.60;;
14858;SDS011;7521;51.700;6.874;2024-01-15T14:49:32;7.97;;;2.73;;
14858;SDS011;7521;51.700;6.874;2024-01-15T14:52:38;4.50;;;1.70;;
14858;SDS011;7521;51.700;6.874;2024-01-15T14:55:44;5.50;;;1.67;;
14858;SDS011;7521;51.700;6.874;2024-01-15T14:58:49;9.27;;;2.83;;
14858;SDS011;7521;51.700;6.874;2024-01-15T15:01:55;6.05;;;2.05;;
14858;SDS011;7521;51.700;6.874;2024-01-15T15:05:02;5.87;;;1.77;;
14858;SDS011;7521;51.700;6.874;2024-01-15T15:08:07;10.73;;;2.20;;
14858;SDS011;7521;51.700;6.874;2024-01-15T15:11:13;9.00;;;3.53;;
14858;SDS011;7521;51.700;6.874;2024-01-15T15:14:19;10.00;;;3.67;;
14858;SDS011;7521;51.700;6.874;2024-01-15T15:17:24;24.45;;;7.60;;
14858;SDS011;7521;51.700;6.874;2024-01-15T15:20:29;12.57;;;3.88;;
14858;SDS011;7521;51.700;6.874;2024-01-15T15:23:34;6.63;;;2.17;;
14858;SDS011;7521;51.700;6.874;2024-01-15T15:26:39;17.55;;;4.65;;
14858;SDS011;7521;51.700;6.874;2024-01-15T15:29:44;13.77;;;3.13;;
14858;SDS011;7521;51.700;6.874;2024-01-15T15:32:50;23.13;;;6.73;;
14858;SDS011;7521;51.700;6.874;2024-01-15T15:35:55;9.65;;;2.20;;
14858;SDS011;7521;51.700;6.874;2024-01-15T15:39:00;12.57;;;3.53;;
14858;SDS011;7521;51.700;6.874;2024-01-15T15:42:05;4.40;;;1.80;;
14858;SDS011;7521;51.700;6.874;2024-01-15T15:45:10;11.23;;;3.13;;
14858;SDS011;7521;51.700;6.874;2024-01-15T15:48:17;12.37;;;3.13;;
14858;SDS011;7521;51.700;6.874;2024-01-15T15:51:23;10.63;;;2.67;;
14858;SDS011;7521;51.700;6.874;2024-01-15T15:54:28;6.00;;;1.73;;
14858;SDS011;7521;51.700;6.874;2024-01-15T15:57:33;6.50;;;1.60;;
14858;SDS011;7521;51.700;6.874;2024-01-15T16:00:38;7.10;;;1.80;;
14858;SDS011;7521;51.700;6.874;2024-01-15T16:03:44;14.35;;;3.30;;
14858;SDS011;7521;51.700;6.874;2024-01-15T16:06:49;17.80;;;5.13;;
14858;SDS011;7521;51.700;6.874;2024-01-15T16:09:55;6.33;;;2.40;;
14858;SDS011;7521;51.700;6.874;2024-01-15T16:13:00;14.30;;;2.73;;
14858;SDS011;7521;51.700;6.874;2024-01-15T16:16:08;12.23;;;2.70;;
14858;SDS011;7521;51.700;6.874;2024-01-15T16:19:13;9.25;;;3.65;;
14858;SDS011;7521;51.700;6.874;2024-01-15T16:22:18;7.83;;;2.23;;
14858;SDS011;7521;51.700;6.874;2024-01-15T16:25:24;8.10;;;2.70;;
14858;SDS011;7521;51.700;6.874;2024-01-15T16:28:29;6.85;;;2.15;;
14858;SDS011;7521;51.700;6.874;2024-01-15T16:31:34;8.27;;;2.65;;
14858;SDS011;7521;51.700;6.874;2024-01-15T16:34:39;6.80;;;2.40;;
14858;SDS011;7521;51.700;6.874;2024-01-15T16:37:44;6.13;;;2.97;;
14858;SDS011;7521;51.700;6.874;2024-01-15T16:40:50;8.48;;;2.78;;
14858;SDS011;7521;51.700;6.874;2024-01-15T16:43:55;7.73;;;2.83;;
14858;SDS011;7521;51.700;6.874;2024-01-15T16:47:00;12.10;;;3.83;;
14858;SDS011;7521;51.700;6.874;2024-01-15T16:50:06;10.50;;;3.63;;
14858;SDS011;7521;51.700;6.874;2024-01-15T16:53:11;4.50;;;2.93;;
14858;SDS011;7521;51.700;6.874;2024-01-15T16:56:16;10.13;;;5.27;;
14858;SDS011;7521;51.700;6.874;2024-01-15T16:59:22;14.00;;;6.77;;
14858;SDS011;7521;51.700;6.874;2024-01-15T17:02:27;16.15;;;7.85;;
14858;SDS011;7521;51.700;6.874;2024-01-15T17:05:32;24.37;;;12.30;;
14858;SDS011;7521;51.700;6.874;2024-01-15T17:08:38;14.85;;;6.25;;
14858;SDS011;7521;51.700;6.874;2024-01-15T17:11:43;13.45;;;7.88;;
14858;SDS011;7521;51.700;6.874;2024-01-15T17:14:48;10.30;;;5.82;;
14858;SDS011;7521;51.700;6.874;2024-01-15T17:17:53;10.98;;;4.80;;
14858;SDS011;7521;51.700;6.874;2024-01-15T17:20:58;10.20;;;6.00;;
14858;SDS011;7521;51.700;6.874;2024-01-15T17:24:04;11.80;;;5.33;;
14858;SDS011;7521;51.700;6.874;2024-01-15T17:27:09;15.07;;;7.30;;
14858;SDS011;7521;51.700;6.874;2024-01-15T17:30:14;12.32;;;5.65;;
14858;SDS011;7521;51.700;6.874;2024-01-15T17:33:20;12.57;;;6.10;;
14858;SDS011;7521;51.700;6.874;2024-01-15T17:36:25;12.90;;;5.87;;
14858;SDS011;7521;51.700;6.874;2024-01-15T17:39:30;15.27;;;5.97;;
14858;SDS011;7521;51.700;6.874;2024-01-15T17:42:36;13.77;;;6.73;;
14858;SDS011;7521;51.700;6.874;2024-01-15T17:45:41;15.52;;;5.50;;
14858;SDS011;7521;51.700;6.874;2024-01-15T17:48:47;12.73;;;5.97;;
14858;SDS011;7521;51.700;6.874;2024-01-15T17:51:52;8.00;;;4.53;;
14858;SDS011;7521;51.700;6.874;2024-01-15T17:54:58;15.77;;;4.90;;
14858;SDS011;7521;51.700;6.874;2024-01-15T17:58:03;15.10;;;4.90;;
14858;SDS011;7521;51.700;6.874;2024-01-15T18:01:08;13.17;;;4.70;;
14858;SDS011;7521;51.700;6.874;2024-01-15T18:04:13;11.37;;;4.57;;
14858;SDS011;7521;51.700;6.874;2024-01-15T18:07:20;12.43;;;5.63;;
14858;SDS011;7521;51.700;6.874;2024-01-15T18:10:25;14.63;;;4.75;;
14858;SDS011;7521;51.700;6.874;2024-01-15T18:13:31;14.77;;;5.13;;
14858;SDS011;7521;51.700;6.874;2024-01-15T18:16:37;15.57;;;5.33;;
14858;SDS011;7521;51.700;6.874;2024-01-15T18:19:42;10.67;;;5.37;;
14858;SDS011;7521;51.700;6.874;2024-01-15T18:22:47;16.53;;;6.13;;
14858;SDS011;7521;51.700;6.874;2024-01-15T18:25:52;11.60;;;6.43;;
14858;SDS011;7521;51.700;6.874;2024-01-15T18:28:58;17.27;;;7.57;;
14858;SDS011;7521;51.700;6.874;2024-01-15T18:32:04;14.07;;;5.87;;
14858;SDS011;7521;51.700;6.874;2024-01-15T18:35:09;11.73;;;5.40;;
14858;SDS011;7521;51.700;6.874;2024-01-15T18:38:14;18.23;;;6.20;;
14858;SDS011;7521;51.700;6.874;2024-01-15T18:41:20;17.93;;;5.80;;
14858;SDS011;7521;51.700;6.874;2024-01-15T18:44:25;13.47;;;5.20;;